MMTM/TAM METAR and TAF weather

Enter ICAO airport designator
Station Type Date Time Source
MMTM METAR 2019/06/19 00:49 UTC NOAA

MMTM 190049Z 13005KT 7SM FEW200 29/26 A2984 RMK 8/001


Station Type Date Time Source
MMTM Decoded METAR 2019/06/19 00:49 UTC NOAA

Tampico / Gen Fj Mina, Mexico (MMTM) 22-17N 097-52W
Jun 18, 2019 - 08:49 PM EDT / 2019.06.19 0049 UTC
Wind: from the SE (130 degrees) at 6 MPH (5 KT):0
Visibility: 7 mile(s):0
Sky conditions: mostly clear
Temperature: 84 F (29 C)
Dew Point: 78 F (26 C)
Relative Humidity: 83%
Pressure (altimeter): 29.84 in. Hg (1010 hPa)
ob: MMTM 190049Z 13005KT 7SM FEW200 29/26 A2984 RMK 8/001
cycle: 1

Station Type Date Time Source
MMTM TAF 2019/06/19 01:06 UTC NOAA

TAF
AMD MMTM 190100Z 1901/1918 13005KT P6SM SCT200
FM190400 12005KT 6SM HZ BKN015
FM191000 00000KT 4SM BR HZ SCT010 BKN015
FM191600 13005KT P6SM SCT015

Example: see airport list